createdAt,value
2023-03-28T00:01:46.606Z,31.15
2023-03-28T00:04:13.865Z,26.80
2023-03-28T00:06:45.607Z,33.50
2023-03-28T00:09:12.814Z,28.50
2023-03-28T00:11:39.563Z,26.88
2023-03-28T00:14:08.417Z,29.98
2023-03-28T00:16:39.386Z,25.48
2023-03-28T00:19:09.740Z,30.35
2023-03-28T00:21:38.032Z,24.77
2023-03-28T00:24:06.522Z,25.08
2023-03-28T00:26:34.503Z,27.10
2023-03-28T00:29:02.046Z,27.27
2023-03-28T00:31:29.043Z,25.83
2023-03-28T00:33:56.501Z,27.80
2023-03-28T00:36:26.771Z,23.73
2023-03-28T00:38:54.059Z,25.35
2023-03-28T00:41:24.760Z,25.55
2023-03-28T00:43:53.411Z,22.83
2023-03-28T00:46:23.088Z,22.52
2023-03-28T00:48:52.582Z,21.70
2023-03-28T00:51:21.595Z,19.90
2023-03-28T00:53:48.736Z,21.17
2023-03-28T00:56:16.609Z,20.02
2023-03-28T00:58:43.772Z,23.80
2023-03-28T01:01:12.231Z,17.80
2023-03-28T01:03:41.387Z,22.20
2023-03-28T01:06:08.702Z,19.83
2023-03-28T01:08:38.089Z,18.30
2023-03-28T01:11:05.572Z,16.80
2023-03-28T01:13:35.127Z,17.88
2023-03-28T01:16:02.993Z,14.25
2023-03-28T01:18:34.612Z,15.73
2023-03-28T01:21:32.154Z,16.38
2023-03-28T01:24:21.206Z,17.52
2023-03-28T01:26:52.951Z,14.68
2023-03-28T01:29:38.540Z,17.20
2023-03-28T01:32:32.695Z,18.50
2023-03-28T01:35:10.579Z,15.88
2023-03-28T01:38:09.566Z,16.00
2023-03-28T01:41:14.704Z,16.02
2023-03-28T01:43:44.451Z,12.48
2023-03-28T01:46:17.133Z,15.70
2023-03-28T01:49:02.325Z,14.05
2023-03-28T01:51:29.364Z,15.38
2023-03-28T01:54:14.976Z,13.98
2023-03-28T01:56:53.393Z,11.52
2023-03-28T01:59:23.628Z,12.13
2023-03-28T02:01:56.222Z,12.13
2023-03-28T02:04:23.147Z,11.55
2023-03-28T02:06:50.228Z,11.30
2023-03-28T02:09:17.560Z,13.18
2023-03-28T02:11:44.635Z,11.73
2023-03-28T02:14:17.386Z,14.10
2023-03-28T02:16:44.499Z,14.80
2023-03-28T02:19:11.638Z,11.68
2023-03-28T02:21:54.137Z,14.32
2023-03-28T02:24:21.156Z,11.30
2023-03-28T02:26:48.211Z,10.35
2023-03-28T02:29:16.043Z,12.52
2023-03-28T02:31:43.118Z,10.65
2023-03-28T02:34:10.405Z,9.52
2023-03-28T02:36:40.475Z,10.25
2023-03-28T02:39:07.403Z,12.13
2023-03-28T02:41:40.213Z,14.25
2023-03-28T02:44:46.189Z,9.75
2023-03-28T02:47:15.997Z,12.10
2023-03-28T02:49:54.987Z,12.57
2023-03-28T02:52:51.456Z,11.73
2023-03-28T02:57:47.975Z,12.55
2023-03-28T03:00:16.615Z,9.25
2023-03-28T03:02:44.010Z,8.52
2023-03-28T03:05:11.791Z,8.32
2023-03-28T03:07:38.877Z,11.18
2023-03-28T03:10:07.020Z,8.57
2023-03-28T03:12:34.664Z,9.68
2023-03-28T03:15:01.742Z,10.15
2023-03-28T03:17:28.894Z,7.10
2023-03-28T03:19:56.164Z,7.15
2023-03-28T03:22:23.498Z,9.77
2023-03-28T03:24:53.196Z,8.55
2023-03-28T03:27:20.749Z,9.57
2023-03-28T03:29:48.461Z,6.93
2023-03-28T03:32:15.578Z,8.32
2023-03-28T03:34:42.374Z,6.80
2023-03-28T03:37:09.639Z,13.05
2023-03-28T03:39:36.402Z,8.25
2023-03-28T03:42:04.109Z,6.63
2023-03-28T03:44:31.118Z,7.70
2023-03-28T03:46:58.180Z,7.38
2023-03-28T03:49:24.901Z,7.95
2023-03-28T03:51:52.083Z,8.50
2023-03-28T03:54:18.913Z,6.63
2023-03-28T03:56:46.529Z,9.30
2023-03-28T03:59:13.347Z,7.85
2023-03-28T04:01:41.552Z,9.50
2023-03-28T04:04:08.533Z,7.53
2023-03-28T04:06:35.824Z,8.82
2023-03-28T04:09:02.583Z,8.95
2023-03-28T04:11:29.638Z,4.60
2023-03-28T04:13:56.480Z,5.20
2023-03-28T04:16:23.944Z,8.13
2023-03-28T04:18:51.036Z,5.72
2023-03-28T04:21:19.536Z,5.95
2023-03-28T04:23:48.376Z,6.93
2023-03-28T04:26:20.497Z,4.53
2023-03-28T04:28:48.168Z,4.03
2023-03-28T04:31:15.306Z,6.32
2023-03-28T04:33:45.259Z,6.18
2023-03-28T04:36:12.403Z,5.05
2023-03-28T04:38:41.702Z,4.85
2023-03-28T04:41:08.803Z,7.57
2023-03-28T04:43:35.602Z,4.55
2023-03-28T04:46:03.096Z,5.05
2023-03-28T04:48:31.216Z,4.45
2023-03-28T04:50:58.271Z,4.72
2023-03-28T04:53:25.302Z,5.88
2023-03-28T04:55:52.485Z,6.57
2023-03-28T04:58:20.671Z,4.68
2023-03-28T05:00:49.090Z,5.47
2023-03-28T05:03:22.370Z,6.05
2023-03-28T05:05:51.363Z,4.85
2023-03-28T05:08:20.337Z,5.75
2023-03-28T05:10:47.405Z,5.28
2023-03-28T05:13:14.311Z,7.07
2023-03-28T05:15:42.342Z,6.50
2023-03-28T05:18:09.300Z,6.70
2023-03-28T05:20:36.543Z,8.48
2023-03-28T05:23:03.641Z,9.82
2023-03-28T05:25:30.465Z,9.25
2023-03-28T05:27:57.794Z,12.57
2023-03-28T05:30:24.615Z,7.78
2023-03-28T05:32:51.710Z,13.50
2023-03-28T05:35:18.603Z,9.32
2023-03-28T05:37:47.018Z,8.68
2023-03-28T05:40:15.461Z,10.07
2023-03-28T05:42:42.698Z,8.23
2023-03-28T05:45:09.961Z,10.77
2023-03-28T05:47:37.058Z,10.43
2023-03-28T05:50:04.185Z,8.82
2023-03-28T05:52:31.211Z,7.38
2023-03-28T05:54:58.269Z,12.98
2023-03-28T05:57:25.448Z,11.90
2023-03-28T05:59:52.252Z,12.07
2023-03-28T06:02:20.587Z,10.43
2023-03-28T06:04:47.652Z,8.20
2023-03-28T06:07:14.888Z,10.68
2023-03-28T06:09:42.243Z,9.88
2023-03-28T06:12:09.454Z,12.88
2023-03-28T06:14:36.196Z,12.18
2023-03-28T06:17:03.457Z,12.85
2023-03-28T06:19:30.375Z,11.85
2023-03-28T06:21:57.457Z,8.68
2023-03-28T06:24:24.223Z,7.72
2023-03-28T06:26:51.543Z,10.00
2023-03-28T06:29:19.690Z,7.45
2023-03-28T06:31:46.873Z,7.45
2023-03-28T06:34:13.645Z,7.18
2023-03-28T06:36:40.858Z,8.32
2023-03-28T06:39:07.658Z,5.47
2023-03-28T06:41:35.088Z,6.95
2023-03-28T06:44:01.829Z,7.78
2023-03-28T06:46:29.013Z,8.68
2023-03-28T06:48:55.876Z,7.57
2023-03-28T06:51:23.006Z,8.50
2023-03-28T06:53:49.733Z,8.48
2023-03-28T06:56:16.857Z,7.97
2023-03-28T06:58:43.675Z,10.32
2023-03-28T07:01:11.078Z,8.57
2023-03-28T07:03:37.964Z,8.73
2023-03-28T07:06:06.604Z,9.10
2023-03-28T07:08:33.545Z,7.93
2023-03-28T07:11:00.771Z,10.02
2023-03-28T07:13:27.718Z,9.98
2023-03-28T07:16:05.560Z,8.90
2023-03-28T07:18:32.468Z,9.20
2023-03-28T07:21:03.873Z,7.78
2023-03-28T07:23:31.320Z,7.70
2023-03-28T07:25:58.389Z,5.45
2023-03-28T07:28:25.156Z,5.22
2023-03-28T07:30:53.707Z,7.40
2023-03-28T07:33:26.684Z,4.60
2023-03-28T07:36:01.435Z,6.22
2023-03-28T07:38:28.248Z,5.18
2023-03-28T07:40:55.293Z,6.43
2023-03-28T07:43:22.077Z,5.75
2023-03-28T07:45:49.213Z,6.63
2023-03-28T07:48:16.114Z,2.90
2023-03-28T07:50:43.188Z,5.40
2023-03-28T07:53:09.941Z,3.10
2023-03-28T07:58:08.915Z,2.58
2023-03-28T08:00:36.399Z,5.20
2023-03-28T08:03:03.317Z,3.38
2023-03-28T08:05:34.137Z,5.22
2023-03-28T08:08:01.220Z,4.88
2023-03-28T08:10:28.323Z,5.32
2023-03-28T08:12:55.286Z,7.13
2023-03-28T08:15:22.323Z,5.45
2023-03-28T08:17:49.123Z,8.45
2023-03-28T08:20:16.312Z,9.95
2023-03-28T08:22:43.071Z,11.38
2023-03-28T08:25:10.153Z,11.52
2023-03-28T08:27:36.878Z,11.20
2023-03-28T08:30:04.507Z,8.10
2023-03-28T08:32:31.281Z,8.50
2023-03-28T08:34:58.336Z,9.13
2023-03-28T08:37:25.235Z,9.50
2023-03-28T08:39:52.316Z,9.20
2023-03-28T08:42:37.363Z,6.65
2023-03-28T08:45:25.994Z,8.95
2023-03-28T08:47:56.880Z,6.07
2023-03-28T08:50:51.290Z,12.45
2023-03-28T08:53:22.795Z,11.35
2023-03-28T08:55:51.137Z,9.05
2023-03-28T08:58:21.510Z,7.75
2023-03-28T09:00:51.523Z,7.47
2023-03-28T09:03:22.467Z,10.25
2023-03-28T09:05:51.676Z,6.95
2023-03-28T09:08:24.548Z,7.93
2023-03-28T09:10:58.439Z,8.27
2023-03-28T09:13:40.790Z,9.10
2023-03-28T09:16:32.718Z,8.63
2023-03-28T09:19:10.512Z,7.25
2023-03-28T09:21:37.686Z,9.27
2023-03-28T09:24:20.966Z,9.02
2023-03-28T09:27:03.739Z,10.35
2023-03-28T09:29:30.708Z,11.32
2023-03-28T09:32:01.212Z,13.43
2023-03-28T09:34:30.704Z,11.57
2023-03-28T09:37:00.023Z,10.02
2023-03-28T09:39:32.769Z,9.00
2023-03-28T09:42:12.565Z,8.48
2023-03-28T09:44:54.183Z,8.90
2023-03-28T09:47:22.405Z,5.82
2023-03-28T09:49:54.334Z,9.35
2023-03-28T09:52:26.492Z,5.72
2023-03-28T09:54:53.274Z,6.60
2023-03-28T09:57:20.668Z,5.68
2023-03-28T09:59:47.428Z,6.93
2023-03-28T10:02:34.798Z,6.03
2023-03-28T10:05:04.031Z,6.30
2023-03-28T10:07:34.959Z,8.57
2023-03-28T10:10:09.780Z,10.20
2023-03-28T10:12:37.977Z,8.10
2023-03-28T10:15:05.360Z,7.07
2023-03-28T10:17:35.485Z,8.82
2023-03-28T10:20:22.073Z,8.88
2023-03-28T10:22:50.431Z,11.18
2023-03-28T10:25:20.678Z,11.48
2023-03-28T10:27:48.158Z,19.50
2023-03-28T10:30:22.597Z,20.25
2023-03-28T10:33:17.628Z,20.38
2023-03-28T10:35:54.959Z,16.33
2023-03-28T10:38:22.416Z,14.82
2023-03-28T10:41:32.781Z,14.57
2023-03-28T10:43:59.815Z,13.10
2023-03-28T10:46:34.711Z,11.10
2023-03-28T10:49:06.343Z,11.65
2023-03-28T10:51:33.139Z,10.32
2023-03-28T10:54:12.279Z,12.85
2023-03-28T10:56:52.678Z,9.07
2023-03-28T10:59:39.174Z,8.93
2023-03-28T11:02:09.048Z,7.60
2023-03-28T11:04:54.825Z,6.90
2023-03-28T11:07:54.368Z,5.22
2023-03-28T11:10:37.063Z,5.78
2023-03-28T11:13:21.860Z,4.45
2023-03-28T11:15:59.174Z,3.60
2023-03-28T11:18:43.334Z,8.02
2023-03-28T11:21:26.897Z,6.20
2023-03-28T11:24:24.683Z,5.90
2023-03-28T11:27:14.768Z,5.80
2023-03-28T11:29:44.598Z,5.07
2023-03-28T11:32:44.031Z,6.43
2023-03-28T11:35:36.417Z,7.13
2023-03-28T11:38:22.418Z,8.52
2023-03-28T11:40:53.027Z,8.93
2023-03-28T11:43:41.366Z,6.20
2023-03-28T11:46:10.010Z,8.35
2023-03-28T11:48:42.426Z,6.15
2023-03-28T11:51:12.855Z,5.38
2023-03-28T11:53:45.858Z,4.05
2023-03-28T11:56:29.249Z,6.72
2023-03-28T11:59:00.804Z,6.05
2023-03-28T12:01:29.889Z,6.38
2023-03-28T12:04:02.710Z,4.95
2023-03-28T12:07:02.306Z,5.00
2023-03-28T12:09:59.402Z,9.27
2023-03-28T12:12:38.915Z,8.65
2023-03-28T12:15:20.165Z,4.78
2023-03-28T12:17:49.306Z,6.32
2023-03-28T12:21:01.323Z,6.40
2023-03-28T12:23:38.063Z,5.22
2023-03-28T12:26:18.204Z,5.30
2023-03-28T12:28:53.844Z,3.58
2023-03-28T12:31:23.923Z,5.43
2023-03-28T12:34:06.703Z,4.60
2023-03-28T12:36:41.907Z,5.03
2023-03-28T12:39:19.671Z,5.85
2023-03-28T12:41:46.687Z,4.47
2023-03-28T12:44:38.839Z,4.10
2023-03-28T12:47:09.454Z,7.15
2023-03-28T12:49:46.313Z,5.50
2023-03-28T12:52:22.494Z,6.10
2023-03-28T12:55:01.356Z,4.28
2023-03-28T12:57:41.217Z,5.65
2023-03-28T13:00:14.823Z,6.57
2023-03-28T13:02:50.850Z,7.30
2023-03-28T13:05:31.984Z,4.20
2023-03-28T13:08:28.851Z,3.65
2023-03-28T13:11:03.169Z,7.65
2023-03-28T13:13:32.602Z,7.75
2023-03-28T13:16:16.446Z,5.28
2023-03-28T13:18:48.260Z,5.03
2023-03-28T13:21:44.917Z,5.78
2023-03-28T13:24:34.482Z,5.15
2023-03-28T13:27:04.043Z,4.57
2023-03-28T13:29:43.437Z,5.50
2023-03-28T13:32:13.807Z,4.82
2023-03-28T13:34:47.307Z,3.42
2023-03-28T13:37:23.301Z,2.80
2023-03-28T13:39:51.956Z,4.07
2023-03-28T13:42:32.272Z,3.20
2023-03-28T13:45:14.455Z,4.35
2023-03-28T13:47:41.314Z,3.17
2023-03-28T13:50:28.644Z,3.85
2023-03-28T13:52:55.412Z,3.83
2023-03-28T13:55:24.026Z,4.35
2023-03-28T13:57:51.360Z,8.50
2023-03-28T14:00:21.082Z,4.32
2023-03-28T14:02:52.201Z,6.57
2023-03-28T14:05:24.609Z,6.50
2023-03-28T14:07:52.186Z,11.95
2023-03-28T14:10:28.310Z,7.90
2023-03-28T14:13:00.176Z,9.93
2023-03-28T14:15:30.455Z,11.32
2023-03-28T14:17:57.569Z,7.00
2023-03-28T14:20:24.664Z,10.70
2023-03-28T14:22:59.713Z,8.32
2023-03-28T14:25:28.609Z,7.97
2023-03-28T14:27:56.320Z,7.65
2023-03-28T14:30:31.063Z,7.97
2023-03-28T14:33:13.528Z,5.07
2023-03-28T14:35:46.139Z,5.75
2023-03-28T14:38:14.448Z,5.60
2023-03-28T14:40:42.850Z,7.25
2023-03-28T14:43:10.231Z,6.82
2023-03-28T14:45:38.508Z,6.68
2023-03-28T14:48:06.408Z,6.57
2023-03-28T14:50:36.900Z,6.95
2023-03-28T14:53:08.019Z,6.32
2023-03-28T14:55:36.903Z,5.35
2023-03-28T14:58:05.125Z,9.80
2023-03-28T15:00:37.702Z,7.05
2023-03-28T15:03:06.331Z,6.68
2023-03-28T15:05:33.386Z,7.32
2023-03-28T15:08:01.324Z,8.00
2023-03-28T15:10:28.914Z,10.57
2023-03-28T15:13:04.808Z,7.10
2023-03-28T15:15:58.219Z,7.00
2023-03-28T15:18:44.174Z,6.07
2023-03-28T15:21:11.723Z,5.85
2023-03-28T15:23:46.028Z,7.70
2023-03-28T15:26:18.919Z,9.07
2023-03-28T15:28:47.337Z,10.15
2023-03-28T15:31:15.146Z,7.85
2023-03-28T15:33:44.612Z,9.18
2023-03-28T15:36:19.143Z,6.32
2023-03-28T15:38:49.225Z,8.82
2023-03-28T15:41:21.732Z,6.30
2023-03-28T15:43:54.734Z,6.95
2023-03-28T15:46:22.913Z,6.32
2023-03-28T15:48:49.667Z,4.07
2023-03-28T15:51:19.932Z,7.30
2023-03-28T15:53:47.138Z,4.93
2023-03-28T15:56:26.517Z,6.18
2023-03-28T15:58:55.457Z,7.32
2023-03-28T16:01:30.481Z,5.28
2023-03-28T16:04:19.156Z,7.65
2023-03-28T16:06:46.411Z,6.30
2023-03-28T16:09:23.452Z,5.90
2023-03-28T16:11:56.428Z,5.13
2023-03-28T16:14:23.502Z,5.45
2023-03-28T16:16:55.114Z,7.63
2023-03-28T16:19:26.526Z,5.53
2023-03-28T16:21:53.801Z,7.25
2023-03-28T16:24:20.634Z,7.75
2023-03-28T16:26:47.815Z,7.68
2023-03-28T16:29:14.732Z,8.90
2023-03-28T16:31:42.030Z,9.68
2023-03-28T16:34:10.180Z,10.85
2023-03-28T16:36:38.489Z,10.88
2023-03-28T16:39:06.405Z,9.02
2023-03-28T16:41:33.639Z,12.05
2023-03-28T16:44:00.523Z,11.88
2023-03-28T16:46:27.607Z,12.60
2023-03-28T16:48:54.435Z,13.05
2023-03-28T16:51:21.506Z,15.15
2023-03-28T16:53:48.416Z,11.02
2023-03-28T16:56:15.680Z,11.10
2023-03-28T16:58:42.692Z,11.65
2023-03-28T17:01:12.157Z,13.23
2023-03-28T17:03:39.201Z,9.45
2023-03-28T17:06:08.298Z,8.10
2023-03-28T17:08:35.978Z,9.35
2023-03-28T17:11:06.301Z,7.50
2023-03-28T17:13:34.257Z,6.97
2023-03-28T17:16:02.071Z,7.07
2023-03-28T17:18:29.890Z,6.45
2023-03-28T17:21:07.833Z,6.65
2023-03-28T17:23:37.572Z,9.18
2023-03-28T17:26:07.213Z,9.25
2023-03-28T17:28:36.303Z,8.90
2023-03-28T17:31:11.175Z,8.43
2023-03-28T17:33:38.664Z,12.25
2023-03-28T17:36:25.337Z,10.73
2023-03-28T17:38:53.559Z,8.52
2023-03-28T17:41:23.263Z,7.78
2023-03-28T17:43:51.228Z,8.15
2023-03-28T17:46:18.521Z,10.18
2023-03-28T17:48:45.656Z,12.75
2023-03-28T17:51:12.890Z,10.63
2023-03-28T17:53:41.075Z,10.23
2023-03-28T17:56:08.709Z,13.10
2023-03-28T17:58:36.553Z,8.90
2023-03-28T18:01:14.715Z,13.48
2023-03-28T18:03:41.721Z,11.43
2023-03-28T18:06:09.080Z,13.38
2023-03-28T18:08:36.275Z,9.48
2023-03-28T18:11:07.456Z,11.50
2023-03-28T18:13:35.053Z,9.05
2023-03-28T18:16:05.364Z,9.85
2023-03-28T18:18:32.799Z,8.73
2023-03-28T18:21:00.322Z,9.38
2023-03-28T18:23:27.169Z,10.68
2023-03-28T18:25:54.334Z,5.45
2023-03-28T18:28:24.050Z,7.63
2023-03-28T18:30:51.611Z,8.23
2023-03-28T18:33:19.368Z,7.97
2023-03-28T18:35:46.985Z,8.70
2023-03-28T18:38:14.484Z,5.80
2023-03-28T18:40:41.712Z,5.63
2023-03-28T18:43:09.480Z,6.38
2023-03-28T18:45:36.973Z,5.13
2023-03-28T18:48:04.451Z,6.93
2023-03-28T18:50:32.064Z,5.05
2023-03-28T18:52:58.911Z,7.38
2023-03-28T18:55:26.026Z,7.05
2023-03-28T18:57:53.089Z,7.20
2023-03-28T19:00:20.606Z,7.57
2023-03-28T19:02:48.887Z,6.63
2023-03-28T19:05:16.915Z,7.75
2023-03-28T19:07:44.504Z,5.93
2023-03-28T19:10:13.576Z,8.80
2023-03-28T19:12:41.344Z,8.15
2023-03-28T19:15:10.594Z,10.18
2023-03-28T19:17:38.235Z,11.52
2023-03-28T19:20:07.487Z,11.40
2023-03-28T19:22:35.217Z,12.18
2023-03-28T19:25:02.472Z,17.83
2023-03-28T19:27:29.250Z,14.57
2023-03-28T19:29:56.670Z,16.58
2023-03-28T19:32:23.556Z,20.88
2023-03-28T19:34:50.715Z,20.23
2023-03-28T19:37:17.536Z,20.95
2023-03-28T19:39:45.383Z,16.98
2023-03-28T19:42:12.147Z,18.92
2023-03-28T19:44:39.444Z,21.90
2023-03-28T19:47:07.016Z,20.13
2023-03-28T19:49:34.268Z,21.85
2023-03-28T19:52:01.408Z,22.38
2023-03-28T19:54:28.580Z,22.88
2023-03-28T19:56:55.514Z,21.92
2023-03-28T19:59:24.766Z,23.30
2023-03-28T20:01:51.624Z,21.48
2023-03-28T20:04:20.848Z,23.50
2023-03-28T20:06:50.551Z,23.75
2023-03-28T20:09:17.647Z,26.55
2023-03-28T20:11:44.393Z,22.10
2023-03-28T20:14:13.771Z,25.50
2023-03-28T20:16:41.283Z,27.75
2023-03-28T20:19:08.392Z,26.55
2023-03-28T20:21:35.237Z,26.00
2023-03-28T20:24:02.368Z,31.80
2023-03-28T20:26:29.155Z,30.70
2023-03-28T20:29:00.497Z,33.00
2023-03-28T20:31:27.593Z,29.65
2023-03-28T20:33:55.392Z,34.00
2023-03-28T20:36:22.528Z,36.10
2023-03-28T20:38:49.685Z,35.25
2023-03-28T20:41:17.676Z,40.30
2023-03-28T20:43:47.080Z,41.42
2023-03-28T20:46:18.731Z,46.40
2023-03-28T20:48:46.930Z,46.42
2023-03-28T20:51:14.498Z,44.70
2023-03-28T20:53:42.504Z,42.35
2023-03-28T20:56:09.574Z,48.63
2023-03-28T20:58:39.165Z,48.22
2023-03-28T21:01:07.110Z,48.58
2023-03-28T21:03:50.308Z,52.17
2023-03-28T21:06:37.866Z,49.90
2023-03-28T21:09:09.931Z,51.97
2023-03-28T21:11:37.617Z,53.05
2023-03-28T21:14:05.587Z,58.75
2023-03-28T21:16:32.910Z,59.22
2023-03-28T21:19:00.459Z,59.80
2023-03-28T21:21:29.975Z,53.97
2023-03-28T21:23:57.317Z,58.13
2023-03-28T21:26:24.736Z,58.72
2023-03-28T21:28:54.743Z,57.65
2023-03-28T21:31:26.587Z,57.05
2023-03-28T21:33:55.436Z,56.33
2023-03-28T21:36:22.494Z,58.05
2023-03-28T21:38:49.607Z,65.28
2023-03-28T21:41:16.715Z,68.60
2023-03-28T21:43:43.970Z,65.53
2023-03-28T21:46:11.415Z,66.03
2023-03-28T21:48:38.777Z,69.55
2023-03-28T21:51:06.080Z,76.65
2023-03-28T21:53:35.035Z,72.82
2023-03-28T21:56:02.238Z,69.28
2023-03-28T21:58:30.915Z,70.65
2023-03-28T22:00:57.840Z,73.40
2023-03-28T22:03:25.705Z,78.55
2023-03-28T22:05:52.673Z,62.50
2023-03-28T22:08:19.867Z,71.65
2023-03-28T22:10:48.721Z,72.43
2023-03-28T22:13:15.972Z,70.38
2023-03-28T22:15:42.864Z,63.90
2023-03-28T22:18:11.345Z,67.95
2023-03-28T22:20:39.409Z,71.45
2023-03-28T22:23:06.725Z,75.05
2023-03-28T22:25:35.932Z,70.07
2023-03-28T22:28:04.285Z,73.75
2023-03-28T22:30:31.915Z,74.38
2023-03-28T22:32:59.125Z,73.18
2023-03-28T22:35:26.050Z,72.15
2023-03-28T22:37:53.157Z,73.55
2023-03-28T22:40:20.108Z,72.50
2023-03-28T22:42:47.298Z,76.97
2023-03-28T22:45:15.066Z,72.20
2023-03-28T22:47:43.100Z,73.50
2023-03-28T22:50:11.460Z,79.25
2023-03-28T22:52:38.959Z,76.15
2023-03-28T22:55:06.199Z,72.80
2023-03-28T22:57:33.536Z,69.40
2023-03-28T23:00:01.749Z,74.97
2023-03-28T23:02:28.963Z,68.07
2023-03-28T23:04:57.109Z,71.90
2023-03-28T23:07:24.306Z,68.60
2023-03-28T23:09:51.058Z,74.43
2023-03-28T23:12:18.204Z,68.47
2023-03-28T23:14:45.651Z,68.05
2023-03-28T23:17:16.658Z,71.65
2023-03-28T23:19:43.649Z,68.40
2023-03-28T23:22:10.748Z,68.60
2023-03-28T23:24:38.024Z,74.32
2023-03-28T23:27:06.696Z,67.72
2023-03-28T23:29:33.493Z,71.88
2023-03-28T23:32:00.593Z,74.03
2023-03-28T23:34:27.428Z,67.10
2023-03-28T23:36:57.988Z,74.88
2023-03-28T23:39:25.220Z,73.88
2023-03-28T23:41:51.808Z,74.15
2023-03-28T23:44:18.935Z,68.75
2023-03-28T23:46:45.894Z,74.13
2023-03-28T23:49:12.918Z,68.57
2023-03-28T23:51:39.684Z,66.38
2023-03-28T23:54:07.057Z,68.63
2023-03-28T23:56:33.848Z,67.93
2023-03-28T23:59:01.098Z,68.15
